Crystal City, Texas
Current Conditions -  °F | °C
As of 12:35 AM on Friday 31 Oct 2014 (Local Time) from KCZT Reporting Station
Clear Clear  
Wind Chill: 68°   Ceiling: Unl
Heat Index: 68°   Visibility: 10mi
Dew Point: 59°   Wind: 5mph
Humidity: 73%   Direction: 140°SE
Pressure: 30.08"   Gusts: NA
Location:  28.68°N, 99.83°W
Report Text: KCZT 310535Z AUTO 14004KT 10SM CLR 20/15 A3008 RMK AO2
Loading
Personal Weather Stations






























Interactive Weather Map
Tropical Storm Tracking
New forecast layout! Learn more

10-Day Weather Forecast

Advertisements
Track Severe Weather on mobile